To NAV CANADA Home Page Login to a new session Search on AWWS site Disclaimer Vers la page française équivalente Tips FAQ What's new on the site To the Forecasts and Observations / NOTAM section To "File a Flight Plan" website Publications and other links Update of the User's profile FIC Telephone Numbers My Weather Data Folder Route Weather Data Regional Weather Data Local Weather Data To the Forecasts and Observations / NOTAM section
Request Generated 04/24/2019 at 16:14:01 UTC . Weather information available at that time is displayed.

METAR/TAF

CALGARY/SPRINGBANK/AB    (show WxCam)

METAR CYBW 241600Z AUTO 16005KT 100V200 9SM CLR 08/M07 A2994 RMK SLP165 DENSITY ALT 4000FT=
METAR CYBW 241500Z AUTO 33003KT 9SM CLR 05/M04 A2996 RMK SLP174=
METAR CYBW 241400Z AUTO 33005KT 9SM BKN150 01/M04 A2996 RMK SLP176=

TAF CYBW 241138Z 2412/2424 31006KT P6SM SCT080
BECMG 2416/2418 18006KT
FM241800 18006KT P6SM SCT060 TEMPO 2418/2424 P6SM -SHRA BKN060
BECMG 2418/2420 30012G22KT
RMK FCST BASED ON AUTO OBS. NXT FCST BY 241800Z=
Your time UTC time
Weather data provided by Environment Canada and NAV CANADA